Archival Weather

Sulphur Springs Muni

Sulphur Springs, Texas (KSLR)

Report from: Thursday, September 21, 2023 7:13 PM CDT
Current time: Saturday, February 24, 2024 10:10 AM CST

Current weather – Weather history – Daily summaries
Weather forecast

Present weatherThunderstorms in the vicinity
Temperature31.0°C (87.8°F)
Heat index31.4°C (88.5°F)
Dew point17.0°C (62.6°F)
Winds 6 kts (3.1 m/s, 6.9 mph) East (100°)
Visibility10 mi. (16.1 km)
Clouds Sky clear
Altimeter29.99 in.Hg (1016 mB)
Relative humidity43 %
Density altitude2,018 ft. (615 m)
Remarks Fully automated report
Automated weather observing station with precipitation discriminator
Lightning observed
Distant west northeast
Flight conditions Visual Meteorological Conditions
Raw dataKSLR 220013Z AUTO 10006KT 10SM VCTS CLR 31/17 A2999 RMK AO2 LTG DSNT W THRU NE
An error has occurred. This application may no longer respond until reloaded. Reload 🗙